Time;durP1;ratioP1;P1;durP2;ratioP2;P2;SDS_P1;SDS_P2;PMS_P1;PMS_P2;Temp;Humidity;BMP_temperature;BMP_pressure;BME280_temperature;BME280_humidity;BME280_pressure;Samples;Min_cycle;Max_cycle;Signal;HPM_P1;HPM_P2
2021/01/19 00:01:29;;;;;;;52.67;21.27;;;3.10;99.90;;;;;;4960095;28;20040;-75
2021/01/19 00:03:55;;;;;;;53.03;21.50;;;3.10;99.90;;;;;;4971468;28;20093;-75
2021/01/19 00:06:21;;;;;;;48.33;21.25;;;3.20;99.90;;;;;;4965260;28;20081;-75
2021/01/19 00:08:46;;;;;;;41.53;20.65;;;3.20;99.90;;;;;;4966336;28;20059;-75
2021/01/19 00:11:12;;;;;;;47.88;21.65;;;3.20;99.90;;;;;;4971054;28;20035;-75
2021/01/19 00:13:38;;;;;;;45.63;20.80;;;3.20;99.90;;;;;;4963993;28;20428;-75
2021/01/19 00:16:04;;;;;;;45.40;20.23;;;3.20;99.90;;;;;;4955061;28;20117;-75
2021/01/19 00:18:30;;;;;;;43.38;20.67;;;3.20;99.90;;;;;;4962240;28;20050;-75
2021/01/19 00:20:55;;;;;;;44.17;20.33;;;3.20;99.90;;;;;;4946681;28;20047;-75
2021/01/19 00:23:21;;;;;;;46.88;21.05;;;3.20;99.90;;;;;;4964810;28;20043;-75
2021/01/19 00:25:47;;;;;;;48.53;19.88;;;3.20;99.90;;;;;;4955655;28;20030;-75
2021/01/19 00:28:13;;;;;;;50.42;19.75;;;3.20;99.90;;;;;;4948624;28;20318;-75
2021/01/19 00:30:40;;;;;;;45.28;19.13;;;3.20;99.90;;;;;;4954329;28;20031;-74
2021/01/19 00:33:07;;;;;;;45.40;20.38;;;3.20;99.90;;;;;;4964911;28;20050;-74
2021/01/19 00:35:33;;;;;;;51.95;18.98;;;3.20;99.90;;;;;;4946784;28;20053;-74
2021/01/19 00:37:59;;;;;;;40.88;19.25;;;3.20;99.90;;;;;;4945485;28;20042;-74
2021/01/19 00:40:26;;;;;;;55.30;21.70;;;3.20;99.90;;;;;;4948120;28;20800;-75
2021/01/19 00:42:52;;;;;;;47.58;19.50;;;3.20;99.90;;;;;;4960165;28;20082;-75
2021/01/19 00:45:18;;;;;;;42.78;20.17;;;3.20;99.90;;;;;;4969105;28;20186;-75
2021/01/19 00:47:43;;;;;;;41.70;19.42;;;3.20;99.90;;;;;;4951235;28;20046;-74
2021/01/19 00:50:10;;;;;;;45.58;19.83;;;3.20;99.90;;;;;;4949953;28;20054;-74
2021/01/19 00:52:36;;;;;;;49.53;20.67;;;3.20;99.90;;;;;;4965463;28;20492;-74
2021/01/19 00:55:04;;;;;;;42.58;19.80;;;3.20;99.90;;;;;;4945251;28;20146;-74
2021/01/19 00:57:29;;;;;;;43.80;19.77;;;3.20;99.90;;;;;;4961643;28;20042;-75
2021/01/19 00:59:55;;;;;;;45.33;20.65;;;3.10;99.90;;;;;;4965648;28;20183;-74
2021/01/19 01:02:21;;;;;;;42.20;20.35;;;3.10;99.90;;;;;;4947450;28;20057;-74
2021/01/19 01:04:47;;;;;;;48.63;20.13;;;3.20;99.90;;;;;;4963795;28;20027;-74
2021/01/19 01:07:12;;;;;;;44.50;20.00;;;3.20;99.90;;;;;;4940441;28;20030;-74
2021/01/19 01:09:38;;;;;;;41.55;20.38;;;3.10;99.90;;;;;;4946331;28;20544;-74
2021/01/19 01:12:05;;;;;;;48.75;20.67;;;3.20;99.90;;;;;;4945588;28;20496;-74
2021/01/19 01:14:31;;;;;;;51.97;21.10;;;3.20;99.90;;;;;;4947052;28;20046;-74
2021/01/19 01:16:57;;;;;;;46.13;21.33;;;3.20;99.90;;;;;;4968027;28;20035;-74
2021/01/19 01:19:22;;;;;;;47.70;19.90;;;3.20;99.90;;;;;;4949206;28;20073;-73
2021/01/19 01:21:48;;;;;;;43.08;19.35;;;3.20;99.90;;;;;;4954184;28;20427;-74
2021/01/19 01:24:14;;;;;;;44.33;19.40;;;3.10;99.90;;;;;;4952034;28;20031;-74
2021/01/19 01:26:39;;;;;;;40.28;19.63;;;3.10;99.90;;;;;;4968650;28;20038;-74
2021/01/19 01:29:05;;;;;;;54.28;19.25;;;3.20;99.90;;;;;;4967409;28;20031;-74
2021/01/19 01:31:32;;;;;;;40.80;18.67;;;3.10;99.90;;;;;;4952244;28;20532;-74
2021/01/19 01:33:57;;;;;;;42.70;18.77;;;3.20;99.90;;;;;;4966127;28;20118;-74
2021/01/19 01:36:23;;;;;;;39.53;19.63;;;3.20;99.90;;;;;;4947032;28;20713;-74
2021/01/19 01:38:49;;;;;;;41.42;18.55;;;3.30;99.90;;;;;;4950018;28;20067;-74
2021/01/19 01:41:17;;;;;;;39.80;17.63;;;3.20;99.90;;;;;;4957755;28;20038;-74
2021/01/19 01:43:43;;;;;;;36.92;18.42;;;3.20;99.90;;;;;;4953946;28;20038;-74
2021/01/19 01:46:10;;;;;;;36.42;17.90;;;3.10;99.90;;;;;;4947259;28;20518;-74
2021/01/19 01:48:38;;;;;;;35.10;17.73;;;3.20;99.90;;;;;;4944703;28;20054;-73
2021/01/19 01:51:05;;;;;;;38.72;17.60;;;3.20;99.90;;;;;;4951624;28;20046;-74
2021/01/19 01:53:30;;;;;;;36.97;17.02;;;3.20;99.90;;;;;;4964118;28;20385;-73
2021/01/19 01:55:57;;;;;;;36.42;16.08;;;3.20;99.90;;;;;;4967088;28;20053;-73
2021/01/19 01:58:23;;;;;;;35.85;16.30;;;3.20;99.90;;;;;;4962487;28;20042;-73
2021/01/19 02:00:53;;;;;;;45.47;17.13;;;3.20;99.90;;;;;;4944687;28;20031;-73
2021/01/19 02:03:19;;;;;;;35.20;16.33;;;3.20;99.90;;;;;;4946724;28;20855;-74
2021/01/19 02:05:44;;;;;;;42.22;17.55;;;3.20;99.90;;;;;;4949709;28;20024;-74
2021/01/19 02:08:23;;;;;;;33.50;17.23;;;3.30;99.90;;;;;;4946451;28;20569;-74
2021/01/19 02:11:10;;;;;;;37.70;17.55;;;3.30;99.90;;;;;;4950349;28;20039;-74
2021/01/19 02:13:54;;;;;;;33.42;16.55;;;3.30;99.90;;;;;;4956332;28;20042;-74
2021/01/19 02:16:28;;;;;;;32.05;17.70;;;3.30;99.90;;;;;;4964485;28;20046;-74
2021/01/19 02:19:03;;;;;;;39.13;17.20;;;3.20;99.90;;;;;;4941863;28;20042;-74
2021/01/19 02:21:53;;;;;;;36.13;16.80;;;3.20;99.90;;;;;;4945911;28;20081;-74
2021/01/19 02:24:47;;;;;;;28.40;15.43;;;3.20;99.90;;;;;;4946559;28;20035;-74
2021/01/19 02:27:42;;;;;;;32.00;15.48;;;3.30;99.90;;;;;;4953247;28;20035;-74
2021/01/19 02:30:19;;;;;;;28.70;15.77;;;3.30;99.90;;;;;;4949953;28;20031;-74
2021/01/19 02:33:03;;;;;;;29.13;14.52;;;3.30;99.90;;;;;;4965357;28;20043;-74
2021/01/19 02:35:45;;;;;;;29.83;13.75;;;3.30;99.90;;;;;;4947745;28;20821;-74
2021/01/19 02:38:34;;;;;;;26.63;14.50;;;3.30;99.90;;;;;;4953556;28;20079;-74
2021/01/19 02:41:01;;;;;;;30.23;15.98;;;3.30;99.90;;;;;;4953746;28;20161;-74
2021/01/19 02:43:29;;;;;;;30.27;14.80;;;3.20;99.90;;;;;;4957350;28;20153;-74
2021/01/19 02:45:56;;;;;;;31.33;15.38;;;3.30;99.90;;;;;;4965480;28;20039;-75
2021/01/19 02:48:24;;;;;;;28.85;15.20;;;3.20;99.90;;;;;;4968789;28;20126;-74
2021/01/19 02:50:51;;;;;;;34.40;14.52;;;3.30;99.90;;;;;;4971427;28;20030;-74
2021/01/19 02:53:18;;;;;;;27.35;15.50;;;3.30;99.90;;;;;;4968853;28;20825;-74
2021/01/19 02:55:44;;;;;;;32.00;15.55;;;3.30;99.90;;;;;;4956166;28;20574;-74
2021/01/19 02:58:29;;;;;;;29.65;15.45;;;3.30;99.90;;;;;;4953165;28;20877;-74
2021/01/19 03:01:07;;;;;;;30.85;15.32;;;3.30;99.90;;;;;;4943839;28;20093;-74
2021/01/19 03:03:38;;;;;;;28.95;15.35;;;3.20;99.90;;;;;;4967544;28;20039;-74
2021/01/19 03:06:13;;;;;;;29.17;14.98;;;3.30;99.90;;;;;;4955043;28;20046;-74
2021/01/19 03:08:41;;;;;;;34.35;16.08;;;3.40;99.90;;;;;;4954126;28;20669;-74
2021/01/19 03:11:10;;;;;;;32.25;15.55;;;3.40;99.90;;;;;;4954186;28;20078;-74
2021/01/19 03:13:36;;;;;;;31.70;15.52;;;3.30;99.90;;;;;;4946288;28;20035;-74
2021/01/19 03:16:07;;;;;;;27.77;13.85;;;3.30;99.90;;;;;;4950765;28;20830;-74
2021/01/19 03:18:33;;;;;;;27.15;14.75;;;3.30;99.90;;;;;;4942954;28;20125;-74
2021/01/19 03:21:02;;;;;;;28.38;13.70;;;3.30;99.90;;;;;;4959514;28;20039;-74
2021/01/19 03:23:27;;;;;;;25.15;13.70;;;3.20;99.90;;;;;;4948481;28;20049;-74
2021/01/19 03:25:53;;;;;;;31.17;14.18;;;3.20;99.90;;;;;;4945781;28;20487;-74
2021/01/19 03:28:19;;;;;;;25.75;13.38;;;3.20;99.90;;;;;;4970346;28;20550;-74
2021/01/19 03:30:44;;;;;;;25.45;13.40;;;3.20;99.90;;;;;;4966579;28;20042;-73
2021/01/19 03:33:10;;;;;;;28.15;14.07;;;3.10;99.90;;;;;;4968634;28;20706;-74
2021/01/19 03:35:39;;;;;;;25.00;13.23;;;3.20;99.90;;;;;;4969916;28;20102;-74
2021/01/19 03:38:08;;;;;;;22.90;12.32;;;3.20;99.90;;;;;;4954324;28;20027;-74
2021/01/19 03:40:34;;;;;;;25.60;13.35;;;3.10;99.90;;;;;;4958812;28;20141;-75
2021/01/19 03:43:00;;;;;;;26.48;14.45;;;3.20;99.90;;;;;;4954979;28;20106;-73
2021/01/19 03:45:29;;;;;;;21.95;13.60;;;3.20;99.90;;;;;;4954005;28;20077;-73
2021/01/19 03:47:55;;;;;;;25.83;12.95;;;3.20;99.90;;;;;;4955321;28;20030;-73
2021/01/19 03:50:23;;;;;;;23.17;13.07;;;3.20;99.90;;;;;;4953614;28;20042;-74
2021/01/19 03:52:48;;;;;;;24.38;13.13;;;3.10;99.90;;;;;;4969579;28;20038;-74
2021/01/19 03:55:14;;;;;;;25.13;13.00;;;3.10;99.90;;;;;;4966804;28;20999;-74
2021/01/19 03:57:40;;;;;;;25.10;12.88;;;3.10;99.90;;;;;;4953872;28;20043;-74
2021/01/19 04:00:07;;;;;;;22.85;12.77;;;3.10;99.90;;;;;;4968608;28;20046;-74
2021/01/19 04:02:38;;;;;;;21.42;11.85;;;3.10;99.90;;;;;;4965023;28;20043;-74
2021/01/19 04:05:05;;;;;;;21.35;12.23;;;3.00;99.90;;;;;;4965673;28;20062;-74
2021/01/19 04:07:32;;;;;;;24.60;12.93;;;3.00;99.90;;;;;;4970461;28;20060;-74
2021/01/19 04:09:57;;;;;;;21.33;11.55;;;3.00;99.90;;;;;;4939648;28;20086;-75
2021/01/19 04:12:23;;;;;;;23.45;12.25;;;3.00;99.90;;;;;;4947921;28;20035;-75
2021/01/19 04:14:49;;;;;;;21.30;12.10;;;2.90;99.90;;;;;;4943848;28;20050;-74
2021/01/19 04:17:15;;;;;;;24.27;12.15;;;2.90;99.90;;;;;;4944140;28;20186;-74
2021/01/19 04:19:41;;;;;;;28.05;12.98;;;2.80;99.90;;;;;;4955100;28;20027;-74
2021/01/19 04:22:06;;;;;;;21.50;11.73;;;2.80;99.90;;;;;;4963754;28;20027;-74
2021/01/19 04:24:32;;;;;;;20.27;11.43;;;2.80;99.90;;;;;;4945233;28;20070;-74
2021/01/19 04:26:58;;;;;;;24.73;12.43;;;2.70;99.90;;;;;;4943825;28;20027;-74
2021/01/19 04:29:23;;;;;;;20.05;12.02;;;2.80;99.90;;;;;;4962457;28;20042;-74
2021/01/19 04:31:49;;;;;;;21.85;11.98;;;2.80;99.90;;;;;;4950281;28;20031;-74
2021/01/19 04:34:15;;;;;;;21.83;12.70;;;2.70;99.90;;;;;;4954348;28;20123;-74
2021/01/19 04:36:40;;;;;;;21.58;11.88;;;2.80;99.90;;;;;;4949969;28;20563;-74
2021/01/19 04:39:06;;;;;;;23.42;12.38;;;2.80;99.90;;;;;;4949401;28;20038;-74
2021/01/19 04:41:33;;;;;;;22.50;12.38;;;2.80;99.90;;;;;;4941667;28;20035;-74
2021/01/19 04:44:00;;;;;;;23.60;12.18;;;2.70;99.90;;;;;;4953991;28;20132;-74
2021/01/19 04:46:26;;;;;;;20.98;11.48;;;2.60;99.90;;;;;;4951551;28;20031;-74
2021/01/19 04:48:53;;;;;;;19.52;11.10;;;2.50;99.90;;;;;;4954534;28;20464;-74
2021/01/19 04:51:27;;;;;;;21.63;11.65;;;2.50;99.90;;;;;;4966587;28;20039;-74
2021/01/19 04:54:02;;;;;;;23.73;12.15;;;2.60;99.90;;;;;;4953646;28;20450;-74
2021/01/19 04:56:29;;;;;;;22.73;11.15;;;2.50;99.90;;;;;;4964052;28;20046;-74
2021/01/19 04:58:56;;;;;;;25.67;11.45;;;2.60;99.90;;;;;;4953709;28;20082;-74
2021/01/19 05:05:37;;;;;;;20.57;11.03;;;2.60;99.90;;;;;;4946829;28;20080;-74
2021/01/19 05:08:15;;;;;;;20.77;10.25;;;2.50;99.90;;;;;;4968186;28;20038;-75
2021/01/19 05:11:03;;;;;;;18.98;10.85;;;2.50;99.90;;;;;;4950809;28;20150;-74
2021/01/19 05:13:54;;;;;;;20.17;9.85;;;2.50;99.90;;;;;;4946213;28;20050;-74
2021/01/19 05:16:32;;;;;;;17.33;9.10;;;2.50;99.90;;;;;;4947722;28;20153;-75
2021/01/19 05:18:59;;;;;;;16.90;9.30;;;2.60;99.90;;;;;;4955464;28;20041;-75
2021/01/19 05:21:24;;;;;;;18.05;8.98;;;2.60;99.90;;;;;;4962107;28;20034;-75
2021/01/19 05:23:50;;;;;;;20.95;10.13;;;2.60;99.90;;;;;;4954140;28;20042;-76
2021/01/19 05:26:18;;;;;;;18.95;9.30;;;2.60;99.90;;;;;;4954688;28;20031;-74
2021/01/19 05:28:47;;;;;;;19.75;8.65;;;2.60;99.90;;;;;;4954152;28;20042;-74
2021/01/19 05:31:18;;;;;;;20.35;8.55;;;2.60;99.90;;;;;;4950153;28;20434;-74
2021/01/19 05:33:55;;;;;;;20.52;8.75;;;2.60;99.90;;;;;;4954725;28;20038;-74
2021/01/19 05:36:23;;;;;;;17.02;8.50;;;2.60;99.90;;;;;;4961474;28;20034;-74
2021/01/19 05:38:52;;;;;;;14.82;7.88;;;2.70;99.90;;;;;;4963103;28;20043;-74
2021/01/19 05:41:30;;;;;;;15.60;8.38;;;2.60;99.90;;;;;;4962565;28;20283;-74
2021/01/19 05:44:07;;;;;;;13.85;7.30;;;2.70;99.90;;;;;;4951998;28;20178;-74
2021/01/19 05:46:33;;;;;;;16.48;8.18;;;2.70;99.90;;;;;;4956785;28;20063;-74
2021/01/19 05:49:01;;;;;;;17.50;8.65;;;2.70;99.90;;;;;;4952180;28;20067;-74
2021/01/19 05:51:29;;;;;;;19.48;8.55;;;2.70;99.90;;;;;;4946179;28;20038;-74
2021/01/19 05:53:59;;;;;;;16.17;8.18;;;2.70;99.90;;;;;;4945219;28;20046;-74
2021/01/19 05:56:27;;;;;;;17.45;8.23;;;2.70;99.90;;;;;;4961926;28;20031;-74
2021/01/19 05:58:53;;;;;;;15.95;8.38;;;2.70;99.90;;;;;;4950858;28;20038;-74
2021/01/19 06:01:32;;;;;;;14.30;7.60;;;2.70;99.90;;;;;;4950806;28;20134;-74
2021/01/19 06:04:02;;;;;;;16.88;8.32;;;2.70;99.90;;;;;;4956831;28;20517;-74
2021/01/19 06:06:29;;;;;;;18.38;7.95;;;2.70;99.90;;;;;;4961340;28;20408;-74
2021/01/19 06:09:00;;;;;;;17.83;8.68;;;2.70;99.90;;;;;;4947257;28;20034;-74
2021/01/19 06:11:27;;;;;;;17.80;8.57;;;2.70;99.90;;;;;;4952897;28;20173;-74
2021/01/19 06:13:54;;;;;;;16.38;8.60;;;2.70;99.90;;;;;;4941783;28;20034;-74
2021/01/19 06:16:24;;;;;;;15.73;7.60;;;2.70;99.90;;;;;;4968372;28;20047;-73
2021/01/19 06:18:50;;;;;;;15.40;8.20;;;2.70;99.90;;;;;;4952621;28;20034;-74
2021/01/19 06:21:30;;;;;;;15.57;7.30;;;2.60;99.90;;;;;;4954375;28;20047;-74
2021/01/19 06:23:56;;;;;;;15.05;8.07;;;2.60;99.90;;;;;;4946961;28;20035;-74
2021/01/19 06:26:22;;;;;;;15.60;7.85;;;2.60;99.90;;;;;;4962145;28;20031;-74
2021/01/19 06:28:48;;;;;;;22.13;8.77;;;2.60;99.90;;;;;;4963966;28;20145;-74
2021/01/19 06:31:15;;;;;;;14.05;7.45;;;2.60;99.90;;;;;;4955739;28;20831;-74
2021/01/19 06:33:42;;;;;;;20.60;9.18;;;2.60;99.90;;;;;;4953050;28;20134;-76
2021/01/19 06:36:09;;;;;;;19.27;8.73;;;2.60;99.90;;;;;;4952815;28;20046;-75
2021/01/19 06:38:35;;;;;;;19.50;9.27;;;2.60;99.90;;;;;;4950110;28;20042;-75
2021/01/19 06:41:05;;;;;;;18.73;8.70;;;2.50;99.90;;;;;;4954834;28;20038;-74
2021/01/19 06:43:37;;;;;;;19.67;9.10;;;2.50;99.90;;;;;;4954194;28;20039;-75
2021/01/19 06:46:08;;;;;;;19.95;9.25;;;2.50;99.90;;;;;;4950630;28;20030;-74
2021/01/19 06:48:35;;;;;;;17.65;9.27;;;2.50;99.90;;;;;;4956309;28;20031;-75
2021/01/19 06:51:09;;;;;;;17.92;9.20;;;2.50;99.90;;;;;;4952366;28;20070;-75
2021/01/19 06:53:56;;;;;;;20.73;9.07;;;2.50;99.90;;;;;;4965435;28;20039;-76
2021/01/19 06:56:29;;;;;;;23.33;9.27;;;2.50;99.90;;;;;;4952528;28;20039;-75
2021/01/19 06:58:56;;;;;;;21.35;9.27;;;2.50;99.90;;;;;;4970161;28;20031;-75
2021/01/19 07:01:29;;;;;;;21.10;9.68;;;2.50;99.90;;;;;;4956475;28;20064;-75
2021/01/19 07:04:22;;;;;;;20.90;9.27;;;2.50;99.90;;;;;;4957295;28;20492;-74
2021/01/19 07:07:03;;;;;;;23.80;9.55;;;2.50;99.90;;;;;;4952633;28;20865;-75
2021/01/19 07:09:38;;;;;;;17.85;9.10;;;2.50;99.90;;;;;;4968689;28;20045;-74
2021/01/19 07:12:08;;;;;;;17.90;9.90;;;2.50;99.90;;;;;;4965422;28;20532;-74
2021/01/19 07:14:43;;;;;;;22.30;9.93;;;2.60;99.90;;;;;;4966852;28;20035;-74
2021/01/19 07:17:18;;;;;;;18.35;9.82;;;2.50;99.90;;;;;;4944330;28;20039;-75
2021/01/19 07:19:50;;;;;;;20.15;9.65;;;2.50;99.90;;;;;;4946827;28;20054;-74
2021/01/19 07:22:57;;;;;;;22.25;9.82;;;2.60;99.90;;;;;;4951471;28;20105;-74
2021/01/19 07:25:24;;;;;;;25.83;10.00;;;2.60;99.90;;;;;;4954762;28;20508;-74
2021/01/19 07:27:49;;;;;;;19.33;9.15;;;2.70;99.90;;;;;;4971110;28;20046;-75
2021/01/19 07:30:16;;;;;;;22.67;10.40;;;2.70;99.90;;;;;;4960324;28;20061;-74
2021/01/19 07:32:46;;;;;;;20.23;9.52;;;2.60;99.90;;;;;;4941651;28;20376;-74
2021/01/19 07:35:14;;;;;;;18.52;9.43;;;2.60;99.90;;;;;;4960155;28;20034;-75
2021/01/19 07:37:40;;;;;;;19.75;10.23;;;2.70;99.90;;;;;;4951562;28;20488;-74
2021/01/19 07:40:16;;;;;;;21.23;10.32;;;2.70;99.90;;;;;;4965970;28;20035;-75
2021/01/19 07:42:42;;;;;;;20.33;9.65;;;2.70;99.90;;;;;;4954922;28;20540;-74
2021/01/19 07:45:08;;;;;;;24.58;10.20;;;2.70;99.90;;;;;;4955463;28;20042;-75
2021/01/19 07:47:39;;;;;;;24.58;10.60;;;2.70;99.90;;;;;;4973187;28;20038;-75
2021/01/19 07:50:10;;;;;;;17.25;9.25;;;2.70;99.90;;;;;;4952132;28;20048;-75
2021/01/19 07:52:37;;;;;;;19.30;9.57;;;2.80;99.90;;;;;;4954415;28;20134;-74
2021/01/19 07:55:23;;;;;;;20.70;9.55;;;2.80;99.90;;;;;;4940561;28;20078;-74
2021/01/19 07:57:53;;;;;;;17.60;9.52;;;2.80;99.90;;;;;;4961091;28;20129;-75
2021/01/19 08:00:23;;;;;;;20.63;9.50;;;2.80;99.90;;;;;;4956940;28;20134;-75
2021/01/19 08:02:49;;;;;;;15.50;8.77;;;2.90;99.90;;;;;;4956817;28;20031;-75
2021/01/19 08:05:26;;;;;;;14.63;8.68;;;2.90;99.90;;;;;;4959702;28;20080;-75
2021/01/19 08:07:52;;;;;;;17.10;8.75;;;3.00;99.90;;;;;;4957337;28;20581;-75
2021/01/19 08:10:22;;;;;;;16.83;9.13;;;3.00;99.90;;;;;;4954389;28;20030;-75
2021/01/19 08:12:52;;;;;;;14.00;7.85;;;3.00;99.90;;;;;;4955818;28;20236;-74
2021/01/19 08:15:22;;;;;;;19.70;9.05;;;3.00;99.90;;;;;;4972224;28;20046;-75
2021/01/19 08:17:53;;;;;;;37.15;16.05;;;3.10;99.90;;;;;;4972492;28;20045;-76
2021/01/19 08:20:27;;;;;;;17.67;7.50;;;3.10;99.90;;;;;;4954931;28;20049;-75
2021/01/19 08:22:55;;;;;;;17.52;7.95;;;3.10;99.90;;;;;;4970207;28;20062;-75
2021/01/19 08:25:29;;;;;;;18.00;7.97;;;3.20;99.90;;;;;;4949434;28;20062;-76
2021/01/19 08:27:59;;;;;;;15.60;7.45;;;3.20;99.90;;;;;;4942197;28;20045;-75
2021/01/19 08:30:26;;;;;;;18.50;8.93;;;3.20;99.90;;;;;;4971717;28;20097;-74
2021/01/19 08:32:54;;;;;;;13.93;7.57;;;3.30;99.90;;;;;;4954020;28;20038;-75
2021/01/19 08:35:24;;;;;;;19.90;7.50;;;3.20;99.90;;;;;;4956990;28;20117;-74
2021/01/19 08:37:55;;;;;;;11.35;6.45;;;3.30;99.90;;;;;;4969992;28;20085;-74
2021/01/19 08:40:23;;;;;;;18.58;7.20;;;3.20;99.90;;;;;;4959757;28;20092;-74
2021/01/19 08:42:49;;;;;;;17.60;8.05;;;3.30;99.90;;;;;;4951288;28;20031;-74
2021/01/19 08:45:35;;;;;;;15.02;6.68;;;3.30;99.90;;;;;;4958315;28;20059;-75
2021/01/19 08:48:02;;;;;;;11.85;6.38;;;3.40;99.90;;;;;;4959333;28;20037;-74
2021/01/19 08:50:32;;;;;;;12.00;6.32;;;3.30;99.90;;;;;;4957166;28;20038;-74
2021/01/19 08:53:05;;;;;;;14.40;6.20;;;3.40;99.90;;;;;;4940114;28;20416;-74
2021/01/19 08:55:31;;;;;;;13.02;5.97;;;3.40;99.90;;;;;;4957088;28;20034;-75
2021/01/19 08:57:58;;;;;;;16.85;6.18;;;3.40;99.90;;;;;;4950347;28;20853;-74
2021/01/19 09:00:28;;;;;;;16.95;6.35;;;3.50;99.90;;;;;;4959105;28;20045;-74
2021/01/19 09:02:55;;;;;;;11.02;5.45;;;3.50;99.90;;;;;;4953392;28;20039;-75
2021/01/19 09:05:26;;;;;;;12.55;6.20;;;3.60;99.90;;;;;;4953874;28;20036;-73
2021/01/19 09:07:51;;;;;;;14.60;5.80;;;3.60;99.90;;;;;;4955720;28;20031;-73
2021/01/19 09:10:35;;;;;;;9.73;5.50;;;3.60;99.90;;;;;;4957050;28;20031;-73
2021/01/19 09:13:01;;;;;;;13.85;5.82;;;3.60;99.90;;;;;;4946094;28;20042;-73
2021/01/19 09:15:27;;;;;;;17.40;5.55;;;3.60;99.90;;;;;;4949227;28;20146;-73
2021/01/19 09:17:55;;;;;;;12.07;5.68;;;3.60;99.90;;;;;;4974626;28;20030;-72
2021/01/19 09:20:22;;;;;;;13.65;6.03;;;3.60;99.90;;;;;;4951603;28;20170;-73
2021/01/19 09:22:48;;;;;;;15.25;5.53;;;3.50;99.90;;;;;;4945898;28;20039;-73
2021/01/19 09:25:14;;;;;;;17.52;6.45;;;3.50;99.90;;;;;;4970526;28;20593;-72
2021/01/19 09:27:40;;;;;;;32.47;13.38;;;3.50;99.90;;;;;;4937005;28;20049;-72
2021/01/19 09:30:11;;;;;;;20.17;5.13;;;3.50;99.90;;;;;;4949020;28;20039;-72
2021/01/19 09:32:38;;;;;;;10.82;5.30;;;3.40;99.90;;;;;;4958504;28;20034;-73
2021/01/19 09:35:05;;;;;;;14.20;5.43;;;3.40;99.90;;;;;;4957019;28;20038;-72
2021/01/19 09:37:31;;;;;;;12.23;4.80;;;3.40;99.90;;;;;;4953262;28;20035;-72
2021/01/19 09:39:56;;;;;;;14.77;5.22;;;3.40;99.90;;;;;;4953490;28;20027;-74
2021/01/19 09:42:22;;;;;;;11.65;4.43;;;3.40;99.90;;;;;;4965624;28;20377;-77
2021/01/19 09:44:49;;;;;;;13.63;5.35;;;3.40;99.90;;;;;;4941578;28;20443;-73
2021/01/19 09:47:16;;;;;;;15.38;5.18;;;3.40;99.90;;;;;;4956896;28;20041;-74
2021/01/19 09:49:42;;;;;;;13.38;4.28;;;3.50;99.90;;;;;;4968295;28;20612;-74
2021/01/19 09:52:14;;;;;;;14.48;4.70;;;3.50;99.90;;;;;;4952055;28;20049;-74
2021/01/19 09:54:40;;;;;;;15.95;5.38;;;3.60;99.90;;;;;;4956096;28;20061;-73
2021/01/19 09:57:07;;;;;;;10.02;4.85;;;3.50;99.90;;;;;;4952348;28;20835;-73
2021/01/19 09:59:33;;;;;;;9.57;4.45;;;3.50;99.90;;;;;;4952918;28;20035;-73
2021/01/19 10:02:00;;;;;;;14.18;4.75;;;3.50;99.90;;;;;;4952587;28;20097;-73
2021/01/19 10:04:27;;;;;;;8.85;4.32;;;3.40;99.90;;;;;;4956032;28;20511;-73
2021/01/19 10:07:03;;;;;;;13.48;5.07;;;3.40;99.90;;;;;;4948532;28;20068;-72
2021/01/19 10:09:29;;;;;;;15.05;5.18;;;3.40;99.90;;;;;;4968178;28;20031;-73
2021/01/19 10:11:59;;;;;;;14.57;4.00;;;3.30;99.90;;;;;;4969470;28;20496;-73
2021/01/19 10:14:41;;;;;;;10.07;4.78;;;3.40;99.90;;;;;;4956478;28;20035;-73
2021/01/19 10:17:12;;;;;;;10.98;3.75;;;3.30;99.90;;;;;;4954290;28;20039;-73
2021/01/19 10:19:38;;;;;;;14.63;3.90;;;3.30;99.90;;;;;;4952807;28;20035;-73
2021/01/19 10:22:06;;;;;;;14.38;6.57;;;3.30;99.90;;;;;;4955969;28;20039;-72
2021/01/19 10:24:32;;;;;;;9.77;4.00;;;3.30;99.90;;;;;;4955409;28;20043;-73
2021/01/19 10:27:09;;;;;;;10.32;4.18;;;3.20;99.90;;;;;;4951642;28;20035;-73
2021/01/19 10:29:43;;;;;;;13.07;4.45;;;3.20;99.90;;;;;;4950850;28;20039;-74
2021/01/19 10:32:14;;;;;;;10.82;3.47;;;3.10;99.90;;;;;;4946725;28;20046;-74
2021/01/19 10:34:50;;;;;;;13.45;4.15;;;3.10;99.90;;;;;;4951266;28;20037;-73
2021/01/19 10:37:17;;;;;;;14.05;4.20;;;3.00;99.90;;;;;;4950830;28;20035;-74
2021/01/19 10:39:57;;;;;;;11.50;4.03;;;2.90;99.90;;;;;;4959255;28;20138;-74
2021/01/19 10:42:30;;;;;;;10.48;4.22;;;2.90;99.90;;;;;;4956588;28;20030;-76
2021/01/19 10:44:58;;;;;;;9.02;4.10;;;2.70;99.90;;;;;;4958457;28;20070;-76
2021/01/19 10:47:25;;;;;;;11.88;5.20;;;2.70;99.90;;;;;;4959145;28;20030;-76
2021/01/19 10:49:51;;;;;;;14.57;5.70;;;2.60;99.90;;;;;;4958758;28;20054;-76
2021/01/19 10:52:17;;;;;;;15.20;5.53;;;2.60;99.90;;;;;;4944669;28;20392;-76
2021/01/19 10:54:42;;;;;;;12.65;5.75;;;2.50;99.90;;;;;;4954420;28;20043;-76
2021/01/19 10:57:10;;;;;;;13.70;5.70;;;2.60;99.90;;;;;;4937716;29;20045;-76
2021/01/19 10:59:36;;;;;;;13.63;6.88;;;2.50;99.90;;;;;;4941174;28;20137;-75
2021/01/19 11:02:04;;;;;;;11.30;6.10;;;2.40;99.90;;;;;;4958429;28;20070;-75
2021/01/19 11:04:30;;;;;;;12.52;6.55;;;2.40;99.90;;;;;;4976994;28;20035;-75
2021/01/19 11:06:55;;;;;;;10.40;5.70;;;2.40;99.90;;;;;;4959937;28;20069;-75
2021/01/19 11:09:21;;;;;;;14.88;6.22;;;2.40;99.90;;;;;;4953171;28;20837;-75
2021/01/19 11:11:47;;;;;;;15.07;6.28;;;2.20;99.90;;;;;;4960010;28;20035;-75
2021/01/19 11:14:13;;;;;;;18.08;6.53;;;2.10;99.90;;;;;;4960771;28;20050;-75
2021/01/19 11:16:41;;;;;;;15.65;6.63;;;2.00;99.90;;;;;;4951631;28;20997;-75
2021/01/19 11:19:11;;;;;;;13.30;6.32;;;1.90;99.90;;;;;;4944156;28;20058;-74
2021/01/19 11:21:39;;;;;;;19.55;6.65;;;1.80;99.90;;;;;;4949495;28;20078;-75
2021/01/19 11:24:07;;;;;;;16.77;6.80;;;1.60;99.90;;;;;;4954129;28;20058;-74
2021/01/19 11:26:36;;;;;;;14.77;6.95;;;1.50;99.90;;;;;;4968867;28;20142;-74
2021/01/19 11:29:03;;;;;;;11.85;6.32;;;1.40;99.90;;;;;;4958972;28;20041;-73
2021/01/19 11:31:31;;;;;;;14.35;6.82;;;1.30;99.90;;;;;;4957211;28;20855;-74
2021/01/19 11:34:01;;;;;;;15.65;7.10;;;1.20;99.90;;;;;;4959373;28;20038;-74
2021/01/19 11:36:33;;;;;;;18.52;7.65;;;1.10;99.90;;;;;;4943537;28;20102;-73
2021/01/19 11:38:59;;;;;;;14.65;7.10;;;1.00;99.90;;;;;;4956637;28;20038;-73
2021/01/19 11:41:27;;;;;;;13.75;6.82;;;1.00;99.90;;;;;;4958902;28;20042;-73
2021/01/19 11:43:53;;;;;;;17.10;7.25;;;1.00;99.90;;;;;;4953980;28;20039;-74
2021/01/19 11:46:27;;;;;;;21.95;7.65;;;1.00;99.90;;;;;;4959877;28;20443;-75
2021/01/19 11:48:54;;;;;;;14.25;7.40;;;1.00;99.90;;;;;;4953064;28;20062;-75
2021/01/19 11:51:22;;;;;;;18.85;7.07;;;0.90;99.90;;;;;;4960959;28;20380;-75
2021/01/19 11:53:52;;;;;;;19.27;7.43;;;0.90;99.90;;;;;;4960976;28;20038;-75
2021/01/19 11:56:19;;;;;;;10.18;6.88;;;0.80;99.90;;;;;;4958353;28;20039;-76
2021/01/19 11:58:45;;;;;;;15.15;6.72;;;0.80;99.90;;;;;;4960992;28;20047;-75
2021/01/19 12:01:21;;;;;;;10.48;6.70;;;0.90;99.90;;;;;;4948509;28;20039;-75
2021/01/19 12:03:47;;;;;;;10.70;6.10;;;0.90;99.90;;;;;;4957578;28;20031;-76
2021/01/19 12:06:14;;;;;;;10.90;6.40;;;0.90;99.90;;;;;;4967231;28;20535;-75
2021/01/19 12:08:40;;;;;;;12.93;6.75;;;0.80;99.90;;;;;;4966908;28;20042;-76
2021/01/19 12:11:07;;;;;;;12.20;6.05;;;0.80;99.90;;;;;;4942333;28;20039;-75
2021/01/19 12:13:47;;;;;;;10.18;6.22;;;0.80;99.90;;;;;;4973685;28;20043;-75
2021/01/19 12:16:34;;;;;;;8.52;6.28;;;0.90;99.90;;;;;;4951908;28;20081;-75
2021/01/19 12:19:00;;;;;;;11.43;6.68;;;0.90;99.90;;;;;;4958944;28;20053;-75
2021/01/19 12:21:26;;;;;;;13.93;6.80;;;0.90;99.90;;;;;;4959967;28;20037;-75
2021/01/19 12:23:52;;;;;;;14.20;7.15;;;1.00;99.90;;;;;;4954865;28;20042;-75
2021/01/19 12:26:17;;;;;;;12.57;6.03;;;1.00;99.90;;;;;;4951339;28;20031;-74
2021/01/19 12:28:44;;;;;;;9.90;6.30;;;1.00;99.90;;;;;;4943024;28;20035;-73
2021/01/19 12:31:10;;;;;;;9.68;5.75;;;1.00;99.90;;;;;;4973188;28;20031;-74
2021/01/19 12:33:37;;;;;;;12.35;5.82;;;1.00;99.90;;;;;;4949219;28;20035;-74
2021/01/19 12:36:03;;;;;;;10.50;6.10;;;0.90;99.90;;;;;;4958204;28;20677;-74
2021/01/19 12:38:29;;;;;;;8.43;5.72;;;1.00;99.90;;;;;;4956439;28;20840;-74
2021/01/19 12:40:55;;;;;;;10.98;5.88;;;1.00;99.90;;;;;;4954546;28;20066;-73
2021/01/19 12:43:21;;;;;;;9.82;5.75;;;1.10;99.90;;;;;;4940883;28;20550;-73
2021/01/19 12:45:47;;;;;;;17.63;7.00;;;1.10;99.90;;;;;;4950611;28;20031;-73
2021/01/19 12:48:12;;;;;;;9.95;6.10;;;1.00;99.90;;;;;;4957368;28;20387;-73
2021/01/19 12:50:38;;;;;;;9.45;6.35;;;1.10;99.90;;;;;;4947238;28;20046;-73
2021/01/19 12:53:05;;;;;;;9.45;5.88;;;1.10;99.90;;;;;;4953525;28;20039;-73
2021/01/19 12:55:32;;;;;;;10.48;6.95;;;1.20;99.90;;;;;;4941335;28;20148;-74
2021/01/19 12:57:58;;;;;;;11.30;6.95;;;1.20;99.90;;;;;;4956964;28;20045;-74